Weather at Alicante International Airport

Public forecast

Using degrees Celsius for public forecast. Weather courtesy of forecast.io.

Current aviation weather report (METAR) for Alicante International Airport

Retrieved 2021/01/22 21:30 UTC (20 minutes ago):

LEAL 222130Z 27018KT CAVOK 13/03 Q1014 NOSIG

Aviation forecast (TAF) for Alicante International Airport

Retrieved 2021/01/22 18:27 UTC (3 hours ago):

TAF TAF LEAL 221700Z 2218/2318 29025KT 9999 FEW030 TX17/2313Z TN07/2306Z TEMPO 2218/2222 29030G45KT BECMG 2221/2223 26012KT BECMG 2310/2312 27015KT BECMG 2316/2318 24006KT